Time;durP1;ratioP1;P1;durP2;ratioP2;P2;SDS_P1;SDS_P2;PMS_P1;PMS_P2;Temp;Humidity;BMP_temperature;BMP_pressure;BME280_temperature;BME280_humidity;BME280_pressure;Samples;Min_cycle;Max_cycle;Signal;HPM_P1;HPM_P2
2022/04/28 00:02:08;;;;;;;;;;;20.10;56.60;;;;;;5045361;28;19913;-66
2022/04/28 00:04:33;;;;;;;;;;;20.10;56.60;;;;;;5046872;28;19913;-68
2022/04/28 00:06:59;;;;;;;;;;;20.10;56.60;;;;;;5046061;28;19947;-68
2022/04/28 00:09:25;;;;;;;;;;;20.10;56.60;;;;;;5046464;28;19913;-68
2022/04/28 00:11:51;;;;;;;;;;;20.10;56.60;;;;;;5028085;28;20315;-68
2022/04/28 00:14:17;;;;;;;;;;;20.10;56.60;;;;;;5046640;28;20354;-69
2022/04/28 00:16:42;;;;;;;;;;;20.10;56.60;;;;;;5046734;28;20027;-68
2022/04/28 00:19:07;;;;;;;;;;;20.10;56.50;;;;;;5044004;28;19916;-68
2022/04/28 00:21:33;;;;;;;;;;;20.10;56.50;;;;;;5041541;28;19917;-69
2022/04/28 00:23:59;;;;;;;;;;;20.10;56.50;;;;;;5028368;28;20383;-69
2022/04/28 00:26:24;;;;;;;;;;;20.10;56.60;;;;;;5046039;28;19920;-69
2022/04/28 00:28:50;;;;;;;;;;;20.10;56.50;;;;;;5042951;28;19932;-68
2022/04/28 00:31:15;;;;;;;;;;;20.10;56.50;;;;;;5045960;28;19955;-69
2022/04/28 00:33:41;;;;;;;;;;;20.10;56.50;;;;;;5046028;28;20101;-69
2022/04/28 00:36:07;;;;;;;;;;;20.10;56.50;;;;;;5045726;28;19917;-68
2022/04/28 00:38:32;;;;;;;;;;;20.00;56.40;;;;;;5043396;28;19920;-69
2022/04/28 00:40:58;;;;;;;;;;;20.00;56.40;;;;;;5044561;28;19917;-70
2022/04/28 00:43:28;;;;;;;;;;;20.10;56.40;;;;;;5045077;28;19917;-69
2022/04/28 00:45:54;;;;;;;;;;;20.10;56.40;;;;;;5045981;28;20175;-69
2022/04/28 00:51:04;;;;;;;;;;;20.00;56.30;;;;;;5044170;28;19919;-68
2022/04/28 00:53:30;;;;;;;;;;;20.00;56.30;;;;;;5044483;28;19940;-69
2022/04/28 00:55:58;;;;;;;;;;;20.00;56.30;;;;;;5044972;28;19971;-69
2022/04/28 00:58:24;;;;;;;;;;;20.00;56.30;;;;;;5044156;28;19917;-68
2022/04/28 01:00:49;;;;;;;;;;;20.00;56.20;;;;;;5043603;28;19968;-68
2022/04/28 01:03:15;;;;;;;;;;;20.00;56.20;;;;;;5045038;28;19909;-67
2022/04/28 01:05:41;;;;;;;;;;;20.00;56.20;;;;;;5045117;28;19913;-68
2022/04/28 01:08:07;;;;;;;;;;;20.00;56.20;;;;;;5043490;28;20047;-69
2022/04/28 01:10:32;;;;;;;;;;;20.00;56.20;;;;;;5043791;28;19920;-68
2022/04/28 01:12:58;;;;;;;;;;;20.00;56.20;;;;;;5026657;28;19925;-68
2022/04/28 01:15:23;;;;;;;;;;;20.00;56.20;;;;;;5027267;28;19928;-68
2022/04/28 01:17:49;;;;;;;;;;;20.00;56.20;;;;;;5045890;28;20155;-68
2022/04/28 01:20:14;;;;;;;;;;;20.00;56.10;;;;;;5044843;28;19909;-67
2022/04/28 01:22:40;;;;;;;;;;;20.00;56.10;;;;;;5043110;28;20363;-68
2022/04/28 01:25:07;;;;;;;;;;;20.00;56.10;;;;;;5043170;28;19920;-68
2022/04/28 01:27:33;;;;;;;;;;;20.00;56.10;;;;;;5027508;28;20000;-67
2022/04/28 01:29:59;;;;;;;;;;;20.00;56.00;;;;;;5043224;28;20276;-69
2022/04/28 01:32:25;;;;;;;;;;;20.00;56.00;;;;;;5043862;28;20402;-69
2022/04/28 01:34:50;;;;;;;;;;;19.90;55.90;;;;;;5043386;28;19995;-69
2022/04/28 01:37:16;;;;;;;;;;;20.00;56.00;;;;;;5042678;28;19948;-69
2022/04/28 01:39:42;;;;;;;;;;;20.00;56.00;;;;;;5025890;28;19915;-68
2022/04/28 01:42:08;;;;;;;;;;;19.90;55.90;;;;;;5043565;28;19916;-69
2022/04/28 01:44:33;;;;;;;;;;;20.00;55.90;;;;;;5043565;28;19912;-69
2022/04/28 01:46:59;;;;;;;;;;;20.00;55.90;;;;;;5042971;28;19921;-68
2022/04/28 01:49:25;;;;;;;;;;;19.90;55.80;;;;;;5042623;28;19947;-68
2022/04/28 01:57:18;;;;;;;;;;;19.90;55.80;;;;;;5044266;28;19916;-69
2022/04/28 01:59:44;;;;;;;;;;;19.90;55.80;;;;;;5042143;28;20299;-69
2022/04/28 02:02:10;;;;;;;;;;;19.90;55.70;;;;;;5042686;28;19946;-68
2022/04/28 02:04:35;;;;;;;;;;;19.90;55.70;;;;;;5043509;28;19932;-68
2022/04/28 02:07:01;;;;;;;;;;;19.90;55.70;;;;;;5026038;28;19917;-69
2022/04/28 02:09:26;;;;;;;;;;;19.90;55.70;;;;;;5042487;28;19921;-69
2022/04/28 02:11:51;;;;;;;;;;;19.90;55.70;;;;;;5026010;28;19935;-67
2022/04/28 02:14:17;;;;;;;;;;;19.90;55.70;;;;;;5044123;28;19959;-70
2022/04/28 02:16:42;;;;;;;;;;;19.90;55.70;;;;;;5042157;28;20287;-71
2022/04/28 02:19:08;;;;;;;;;;;19.90;55.60;;;;;;5025869;28;19917;-70
2022/04/28 02:21:33;;;;;;;;;;;19.90;55.60;;;;;;5043606;28;19909;-70
2022/04/28 02:23:59;;;;;;;;;;;19.80;55.50;;;;;;5043964;28;19929;-71
2022/04/28 02:26:24;;;;;;;;;;;19.80;55.50;;;;;;5043053;28;19959;-67
2022/04/28 02:28:50;;;;;;;;;;;19.90;55.60;;;;;;5043198;28;19916;-71
2022/04/28 02:31:15;;;;;;;;;;;19.80;55.60;;;;;;5042555;28;20346;-70
2022/04/28 02:33:41;;;;;;;;;;;19.80;55.50;;;;;;5041794;28;19916;-68
2022/04/28 02:36:06;;;;;;;;;;;19.90;55.60;;;;;;5045122;28;20559;-70
2022/04/28 02:38:31;;;;;;;;;;;19.80;55.50;;;;;;5042861;28;19920;-69
2022/04/28 02:40:57;;;;;;;;;;;19.80;55.50;;;;;;5042115;28;19966;-69
2022/04/28 02:43:23;;;;;;;;;;;19.80;55.50;;;;;;5043933;28;19909;-69
2022/04/28 02:45:49;;;;;;;;;;;19.80;55.50;;;;;;5043217;28;19913;-70
2022/04/28 02:48:14;;;;;;;;;;;19.80;55.50;;;;;;5044464;28;19921;-68
2022/04/28 02:50:40;;;;;;;;;;;19.80;55.50;;;;;;5043114;28;20628;-71
2022/04/28 02:53:05;;;;;;;;;;;19.80;55.40;;;;;;5043804;28;19916;-70
2022/04/28 02:55:31;;;;;;;;;;;19.80;55.40;;;;;;5025942;28;19917;-70
2022/04/28 02:57:56;;;;;;;;;;;19.80;55.40;;;;;;5043429;28;19948;-69
2022/04/28 03:00:22;;;;;;;;;;;19.80;55.40;;;;;;5041476;28;19917;-70
2022/04/28 03:02:47;;;;;;;;;;;19.80;55.40;;;;;;5042134;28;19917;-71
2022/04/28 03:05:13;;;;;;;;;;;19.80;55.30;;;;;;5043906;28;19970;-69
2022/04/28 03:10:49;;;;;;;;;;;19.80;55.30;;;;;;5041694;28;20378;-70
2022/04/28 03:13:15;;;;;;;;;;;19.80;55.30;;;;;;5042578;28;19913;-70
2022/04/28 03:15:41;;;;;;;;;;;19.70;55.30;;;;;;5043027;28;20287;-70
2022/04/28 03:18:06;;;;;;;;;;;19.70;55.20;;;;;;5044602;28;20236;-70
2022/04/28 03:20:32;;;;;;;;;;;19.70;55.20;;;;;;5024305;28;20712;-69
2022/04/28 03:22:57;;;;;;;;;;;19.70;55.20;;;;;;5042273;28;19913;-71
2022/04/28 03:25:23;;;;;;;;;;;19.70;55.20;;;;;;5043449;28;19912;-69
2022/04/28 03:27:48;;;;;;;;;;;19.70;55.20;;;;;;5042233;28;20375;-68
2022/04/28 03:30:13;;;;;;;;;;;19.70;55.20;;;;;;5042741;28;19947;-68
2022/04/28 03:32:39;;;;;;;;;;;19.70;55.20;;;;;;5041005;28;19921;-69
2022/04/28 03:35:05;;;;;;;;;;;19.70;55.20;;;;;;5042299;28;19916;-70
2022/04/28 03:37:30;;;;;;;;;;;19.70;55.20;;;;;;5044073;28;20260;-68
2022/04/28 03:39:55;;;;;;;;;;;19.70;55.20;;;;;;5044039;28;19931;-68
2022/04/28 03:42:21;;;;;;;;;;;19.60;55.10;;;;;;5046121;28;20380;-70
2022/04/28 03:44:46;;;;;;;;;;;19.70;55.10;;;;;;5046782;28;19917;-70
2022/04/28 03:47:12;;;;;;;;;;;19.70;55.10;;;;;;5047578;28;19919;-70
2022/04/28 03:49:37;;;;;;;;;;;19.70;55.10;;;;;;5046688;28;19920;-71
2022/04/28 03:52:03;;;;;;;;;;;19.70;55.10;;;;;;5047319;28;19927;-70
2022/04/28 03:54:28;;;;;;;;;;;19.70;55.10;;;;;;5045343;28;20352;-70
2022/04/28 03:56:54;;;;;;;;;;;19.70;55.10;;;;;;5045362;28;20451;-70
2022/04/28 03:59:19;;;;;;;;;;;19.70;55.80;;;;;;5045613;28;19924;-70
2022/04/28 04:01:45;;;;;;;;;;;19.60;55.10;;;;;;5045154;28;19967;-66
2022/04/28 04:04:10;;;;;;;;;;;19.70;55.10;;;;;;5044670;28;19923;-71
2022/04/28 04:06:36;;;;;;;;;;;19.70;55.20;;;;;;5044894;28;20334;-70
2022/04/28 04:09:01;;;;;;;;;;;19.70;55.10;;;;;;5045437;28;19917;-70
2022/04/28 04:11:27;;;;;;;;;;;19.70;55.10;;;;;;5046891;28;19920;-70
2022/04/28 04:13:52;;;;;;;;;;;19.60;55.10;;;;;;5046749;28;20403;-68
2022/04/28 04:16:17;;;;;;;;;;;19.70;55.10;;;;;;5028880;28;20341;-69
2022/04/28 04:18:43;;;;;;;;;;;19.60;55.10;;;;;;5045933;28;19909;-70
2022/04/28 04:21:08;;;;;;;;;;;19.70;55.10;;;;;;5028785;28;19959;-71
2022/04/28 04:23:34;;;;;;;;;;;19.60;55.10;;;;;;5045519;28;19920;-70
2022/04/28 04:26:01;;;;;;;;;;;19.60;55.00;;;;;;5045024;28;19916;-70
2022/04/28 04:28:26;;;;;;;;;;;19.60;55.00;;;;;;5027993;28;20437;-69
2022/04/28 04:33:36;;;;;;;;;;;19.70;55.00;;;;;;5046577;28;20279;-69
2022/04/28 04:36:02;;;;;;;;;;;19.60;55.00;;;;;;5045076;28;19912;-69
2022/04/28 04:38:28;;;;;;;;;;;19.60;55.00;;;;;;5043515;28;19925;-69
2022/04/28 04:40:53;;;;;;;;;;;19.60;55.00;;;;;;5044951;28;19921;-70
2022/04/28 04:43:18;;;;;;;;;;;19.60;55.10;;;;;;5045363;28;19913;-67
2022/04/28 04:45:44;;;;;;;;;;;19.60;55.20;;;;;;5045884;28;20313;-69
2022/04/28 04:48:10;;;;;;;;;;;19.60;56.00;;;;;;5051607;28;19923;-68
2022/04/28 04:50:36;;;;;;;;;;;19.60;55.80;;;;;;5044278;28;19912;-70
2022/04/28 04:53:02;;;;;;;;;;;19.70;55.80;;;;;;5043574;28;20364;-69
2022/04/28 04:55:28;;;;;;;;;;;19.80;55.60;;;;;;5045688;28;20261;-68
2022/04/28 04:57:53;;;;;;;;;;;19.90;55.40;;;;;;5045701;28;19909;-70
2022/04/28 05:00:19;;;;;;;;;;;20.00;55.30;;;;;;5026111;28;19920;-68
2022/04/28 05:02:44;;;;;;;;;;;20.00;55.30;;;;;;5045585;28;20326;-68
2022/04/28 05:05:10;;;;;;;;;;;20.10;55.30;;;;;;5044354;28;19919;-70
2022/04/28 05:07:35;;;;;;;;;;;20.10;55.10;;;;;;5027815;28;19959;-70
2022/04/28 05:10:00;;;;;;;;;;;20.20;55.00;;;;;;5044159;28;19916;-70
2022/04/28 05:12:26;;;;;;;;;;;20.20;54.90;;;;;;5027423;28;19925;-72
2022/04/28 05:14:51;;;;;;;;;;;20.20;54.80;;;;;;5045067;28;19990;-67
2022/04/28 05:17:17;;;;;;;;;;;20.30;54.70;;;;;;5044024;28;19909;-69
2022/04/28 05:19:42;;;;;;;;;;;20.30;54.70;;;;;;5043703;28;20553;-69
2022/04/28 05:22:08;;;;;;;;;;;20.20;54.80;;;;;;5045195;28;19939;-70
2022/04/28 05:24:33;;;;;;;;;;;20.30;55.20;;;;;;5045261;28;19920;-69
2022/04/28 05:26:59;;;;;;;;;;;20.40;55.90;;;;;;5043171;28;20282;-66
2022/04/28 05:29:24;;;;;;;;;;;20.40;55.80;;;;;;5041840;28;19924;-69
2022/04/28 05:31:50;;;;;;;;;;;20.40;55.60;;;;;;5041104;28;19977;-69
2022/04/28 05:34:15;;;;;;;;;;;20.40;55.60;;;;;;5044708;28;19921;-66
2022/04/28 05:36:41;;;;;;;;;;;20.40;55.90;;;;;;5043473;28;19918;-69
2022/04/28 05:39:06;;;;;;;;;;;20.40;56.10;;;;;;5042713;28;20368;-69
2022/04/28 05:41:32;;;;;;;;;;;20.30;56.10;;;;;;5044787;28;19917;-68
2022/04/28 05:46:41;;;;;;;;;;;20.20;56.10;;;;;;5043572;28;20429;-71
2022/04/28 05:49:07;;;;;;;;;;;20.20;55.90;;;;;;5044452;28;19917;-69
2022/04/28 05:51:32;;;;;;;;;;;20.20;56.50;;;;;;5043461;28;20534;-70
2022/04/28 05:53:58;;;;;;;;;;;20.30;56.60;;;;;;5044961;28;20096;-68
2022/04/28 05:56:23;;;;;;;;;;;20.30;56.40;;;;;;5044049;28;19913;-71
2022/04/28 05:58:49;;;;;;;;;;;20.30;56.50;;;;;;5042444;28;19999;-70
2022/04/28 06:01:14;;;;;;;;;;;20.30;56.10;;;;;;5044902;28;19948;-70
2022/04/28 06:03:41;;;;;;;;;;;20.30;55.90;;;;;;5042138;28;19913;-71
2022/04/28 06:06:06;;;;;;;;;;;20.30;56.00;;;;;;5042902;28;19920;-71
2022/04/28 06:08:32;;;;;;;;;;;20.30;56.20;;;;;;5042635;28;19921;-71
2022/04/28 06:10:58;;;;;;;;;;;20.30;56.20;;;;;;5043438;28;19974;-70
2022/04/28 06:13:24;;;;;;;;;;;20.20;56.10;;;;;;5043474;28;19962;-70
2022/04/28 06:15:49;;;;;;;;;;;20.20;56.20;;;;;;5044480;28;19919;-71
2022/04/28 06:18:15;;;;;;;;;;;20.20;56.30;;;;;;5042746;28;19982;-70
2022/04/28 06:20:40;;;;;;;;;;;20.20;56.30;;;;;;5043695;28;20217;-71
2022/04/28 06:23:05;;;;;;;;;;;20.10;56.20;;;;;;5043591;28;19913;-70
2022/04/28 06:25:32;;;;;;;;;;;20.10;56.30;;;;;;5044709;28;19982;-70
2022/04/28 06:27:57;;;;;;;;;;;20.00;56.20;;;;;;5042945;28;19917;-71
2022/04/28 06:30:25;;;;;;;;;;;20.10;56.30;;;;;;5043302;28;19959;-70
2022/04/28 06:32:51;;;;;;;;;;;20.00;56.30;;;;;;5042512;28;19997;-70
2022/04/28 06:35:16;;;;;;;;;;;20.10;56.40;;;;;;5025860;28;20010;-71
2022/04/28 06:37:42;;;;;;;;;;;20.00;56.30;;;;;;5041438;28;19920;-70
2022/04/28 06:40:07;;;;;;;;;;;20.10;56.60;;;;;;5044202;28;19909;-70
2022/04/28 06:42:33;;;;;;;;;;;20.00;56.50;;;;;;5042413;28;19963;-70
2022/04/28 06:44:58;;;;;;;;;;;20.00;56.30;;;;;;5042981;28;19925;-70
2022/04/28 06:47:24;;;;;;;;;;;20.00;56.40;;;;;;5042628;28;20283;-71
2022/04/28 06:49:49;;;;;;;;;;;20.00;56.40;;;;;;5043061;28;19913;-70
2022/04/28 06:52:15;;;;;;;;;;;20.00;56.40;;;;;;5043156;28;20383;-71
2022/04/28 06:54:40;;;;;;;;;;;20.00;56.40;;;;;;5026160;28;19921;-71
2022/04/28 06:57:06;;;;;;;;;;;20.00;56.40;;;;;;5044323;28;19913;-70
2022/04/28 06:59:31;;;;;;;;;;;20.00;56.50;;;;;;5025198;28;19909;-71
2022/04/28 07:01:57;;;;;;;;;;;20.00;56.50;;;;;;5042269;28;20326;-70
2022/04/28 07:04:22;;;;;;;;;;;20.00;56.50;;;;;;5042441;28;19924;-70
2022/04/28 07:06:48;;;;;;;;;;;19.90;56.40;;;;;;5042415;28;19912;-71
2022/04/28 07:09:13;;;;;;;;;;;19.90;56.40;;;;;;5042912;28;19917;-71
2022/04/28 07:11:39;;;;;;;;;;;19.90;56.50;;;;;;5043535;28;19915;-71
2022/04/28 07:14:04;;;;;;;;;;;20.00;56.50;;;;;;5042474;28;20470;-70
2022/04/28 07:16:30;;;;;;;;;;;19.90;56.50;;;;;;5044444;28;19909;-70
2022/04/28 07:18:55;;;;;;;;;;;19.90;56.40;;;;;;5045419;28;19917;-70
2022/04/28 07:21:21;;;;;;;;;;;19.90;56.40;;;;;;5046304;28;19947;-71
2022/04/28 07:23:46;;;;;;;;;;;19.90;56.40;;;;;;5047610;28;20321;-71
2022/04/28 07:26:11;;;;;;;;;;;19.90;56.40;;;;;;5045960;28;19913;-71
2022/04/28 07:28:37;;;;;;;;;;;19.90;56.40;;;;;;5045588;28;19908;-70
2022/04/28 07:31:03;;;;;;;;;;;19.90;56.40;;;;;;5045664;28;19967;-70
2022/04/28 07:33:28;;;;;;;;;;;19.90;56.40;;;;;;5047345;28;20558;-71
2022/04/28 07:35:53;;;;;;;;;;;19.90;56.40;;;;;;5046714;28;19909;-70
2022/04/28 07:38:19;;;;;;;;;;;19.90;56.40;;;;;;5047134;28;19939;-70
2022/04/28 07:40:44;;;;;;;;;;;19.90;56.40;;;;;;5044864;28;19909;-70
2022/04/28 07:43:10;;;;;;;;;;;19.90;56.40;;;;;;5046481;28;20530;-71
2022/04/28 07:45:35;;;;;;;;;;;19.80;56.40;;;;;;5046184;28;19917;-71
2022/04/28 07:48:01;;;;;;;;;;;19.90;56.40;;;;;;5047307;28;20484;-71
2022/04/28 07:50:28;;;;;;;;;;;19.90;56.40;;;;;;5028392;28;19917;-70
2022/04/28 07:52:54;;;;;;;;;;;19.80;56.30;;;;;;5046385;28;19913;-70
2022/04/28 07:55:19;;;;;;;;;;;19.80;56.40;;;;;;5048138;28;19916;-71
2022/04/28 07:57:45;;;;;;;;;;;19.80;56.30;;;;;;5046743;28;20371;-70
2022/04/28 08:00:10;;;;;;;;;;;19.90;56.40;;;;;;5028416;28;19917;-71
2022/04/28 08:02:37;;;;;;;;;;;19.80;56.40;;;;;;5045888;28;19916;-70
2022/04/28 08:05:04;;;;;;;;;;;19.80;56.40;;;;;;5045845;28;19924;-70
2022/04/28 08:07:30;;;;;;;;;;;19.80;56.40;;;;;;5045935;28;20023;-71
2022/04/28 08:09:56;;;;;;;;;;;19.80;56.40;;;;;;5046057;28;20008;-71
2022/04/28 08:12:21;;;;;;;;;;;19.80;56.40;;;;;;5046501;28;19909;-71
2022/04/28 08:14:46;;;;;;;;;;;19.80;56.40;;;;;;5047439;28;19935;-70
2022/04/28 08:17:12;;;;;;;;;;;19.80;56.40;;;;;;5047704;28;19915;-71
2022/04/28 08:19:37;;;;;;;;;;;19.80;56.40;;;;;;5045402;28;19921;-71
2022/04/28 08:22:03;;;;;;;;;;;19.80;56.50;;;;;;5045942;28;20522;-70
2022/04/28 08:24:28;;;;;;;;;;;19.80;56.50;;;;;;5051612;28;19990;-70
2022/04/28 08:26:54;;;;;;;;;;;19.80;56.50;;;;;;5057123;28;19909;-70
2022/04/28 08:29:23;;;;;;;;;;;19.80;56.50;;;;;;5050260;28;20413;-70
2022/04/28 08:31:49;;;;;;;;;;;19.80;56.50;;;;;;5031348;28;19928;-71
2022/04/28 08:34:14;;;;;;;;;;;19.80;56.50;;;;;;5029627;28;19914;-71
2022/04/28 08:36:40;;;;;;;;;;;19.80;56.50;;;;;;5042768;28;19946;-71
2022/04/28 08:39:05;;;;;;;;;;;19.70;56.40;;;;;;5045164;28;20008;-71
2022/04/28 08:41:34;;;;;;;;;;;19.80;56.50;;;;;;5044827;28;20009;-71
2022/04/28 08:44:00;;;;;;;;;;;19.80;56.50;;;;;;5044767;28;19925;-71
2022/04/28 08:49:13;;;;;;;;;;;19.80;56.50;;;;;;5043901;28;19916;-71
2022/04/28 08:51:38;;;;;;;;;;;19.80;56.50;;;;;;5044980;28;20291;-71
2022/04/28 08:54:04;;;;;;;;;;;19.80;56.50;;;;;;5044279;28;19912;-71
2022/04/28 08:56:29;;;;;;;;;;;19.80;56.50;;;;;;5045599;28;19970;-71
2022/04/28 08:58:55;;;;;;;;;;;19.80;56.50;;;;;;5045088;28;20326;-71
2022/04/28 09:01:24;;;;;;;;;;;19.80;56.50;;;;;;5027773;28;19941;-70
2022/04/28 09:03:49;;;;;;;;;;;19.70;56.40;;;;;;5046294;28;20008;-70
2022/04/28 09:06:18;;;;;;;;;;;19.70;56.40;;;;;;5046544;28;19908;-71
2022/04/28 09:08:44;;;;;;;;;;;19.70;56.40;;;;;;5043288;28;19913;-70
2022/04/28 09:11:19;;;;;;;;;;;19.70;56.40;;;;;;5044785;28;19909;-71
2022/04/28 09:16:33;;;;;;;;;;;19.80;56.40;;;;;;5044128;28;19916;-71
2022/04/28 09:18:58;;;;;;;;;;;19.70;56.40;;;;;;5043111;28;19909;-71
2022/04/28 09:21:24;;;;;;;;;;;19.70;56.40;;;;;;5043418;28;19909;-71
2022/04/28 09:23:50;;;;;;;;;;;19.80;56.40;;;;;;5043951;28;19939;-71
2022/04/28 09:26:15;;;;;;;;;;;19.70;56.40;;;;;;5044140;28;19947;-71
2022/04/28 09:28:41;;;;;;;;;;;19.70;56.40;;;;;;5043027;28;20543;-71
2022/04/28 09:31:08;;;;;;;;;;;19.80;56.40;;;;;;5043895;28;19979;-71
2022/04/28 09:33:36;;;;;;;;;;;19.70;56.40;;;;;;5043859;28;19916;-71
2022/04/28 09:36:02;;;;;;;;;;;19.70;56.40;;;;;;5043527;28;19913;-71
2022/04/28 09:38:27;;;;;;;;;;;19.80;56.40;;;;;;5043801;28;19915;-70
2022/04/28 09:43:37;;;;;;;;;;;19.70;56.40;;;;;;5043949;28;19944;-71
2022/04/28 09:46:04;;;;;;;;;;;19.70;56.40;;;;;;5044393;28;20721;-71
2022/04/28 09:48:30;;;;;;;;;;;19.70;56.30;;;;;;5044393;28;19913;-70
2022/04/28 09:51:09;;;;;;;;;;;19.70;56.30;;;;;;5044114;28;19948;-70
2022/04/28 09:53:36;;;;;;;;;;;19.70;56.30;;;;;;5043639;28;20316;-71
2022/04/28 09:56:02;;;;;;;;;;;19.80;56.40;;;;;;5043872;28;19912;-71
2022/04/28 09:58:27;;;;;;;;;;;19.70;56.30;;;;;;5043189;28;19909;-70
2022/04/28 10:00:55;;;;;;;;;;;19.70;56.30;;;;;;5043143;28;19916;-71
2022/04/28 10:03:21;;;;;;;;;;;19.70;56.30;;;;;;5043668;28;19912;-71
2022/04/28 10:05:46;;;;;;;;;;;19.70;56.20;;;;;;5042827;28;20443;-71
2022/04/28 10:08:13;;;;;;;;;;;19.80;56.30;;;;;;5043195;28;19952;-71
2022/04/28 10:10:39;;;;;;;;;;;19.70;56.20;;;;;;5043011;28;20003;-70
2022/04/28 10:13:04;;;;;;;;;;;19.80;56.30;;;;;;5043198;28;19999;-71
2022/04/28 10:15:32;;;;;;;;;;;19.80;56.30;;;;;;5042970;28;19978;-71
2022/04/28 10:18:05;;;;;;;;;;;19.80;56.30;;;;;;5044718;28;19913;-71
2022/04/28 10:20:35;;;;;;;;;;;19.80;56.30;;;;;;5041721;28;19947;-71
2022/04/28 10:23:02;;;;;;;;;;;19.80;56.20;;;;;;5026481;28;20394;-70
2022/04/28 10:33:47;;;;;;;;;;;19.80;56.20;;;;;;5042407;28;19920;-71
2022/04/28 10:36:16;;;;;;;;;;;19.80;56.20;;;;;;5026213;28;19932;-71
2022/04/28 10:38:44;;;;;;;;;;;19.80;56.20;;;;;;5042134;28;19920;-71
2022/04/28 10:41:10;;;;;;;;;;;19.80;56.20;;;;;;5026050;28;20212;-71
2022/04/28 10:43:38;;;;;;;;;;;19.80;56.20;;;;;;5025913;28;19909;-71
2022/04/28 10:46:06;;;;;;;;;;;19.80;56.20;;;;;;5042777;28;19912;-70
2022/04/28 10:48:32;;;;;;;;;;;19.80;56.20;;;;;;5041592;28;20432;-70
2022/04/28 10:51:07;;;;;;;;;;;19.80;56.20;;;;;;5045536;28;20248;-71
2022/04/28 10:53:32;;;;;;;;;;;19.80;56.20;;;;;;5050413;28;19948;-70
2022/04/28 10:56:04;;;;;;;;;;;19.80;56.20;;;;;;5049271;28;19949;-71
2022/04/28 10:58:30;;;;;;;;;;;19.80;56.20;;;;;;5031669;28;19920;-71
2022/04/28 11:00:56;;;;;;;;;;;19.80;56.30;;;;;;5050262;28;19988;-71
2022/04/28 11:03:40;;;;;;;;;;;19.80;56.20;;;;;;5048486;28;19974;-71
2022/04/28 11:06:13;;;;;;;;;;;19.80;56.30;;;;;;5048841;28;19921;-70
2022/04/28 11:08:42;;;;;;;;;;;19.80;56.30;;;;;;5048287;28;19916;-70
2022/04/28 11:11:09;;;;;;;;;;;19.80;56.20;;;;;;5049509;28;19940;-70
2022/04/28 11:13:35;;;;;;;;;;;19.80;56.30;;;;;;5049079;28;20527;-71
2022/04/28 11:16:01;;;;;;;;;;;19.80;56.30;;;;;;5049102;28;19969;-71
2022/04/28 11:18:26;;;;;;;;;;;19.80;56.20;;;;;;5049507;28;19944;-70
2022/04/28 11:20:57;;;;;;;;;;;19.80;56.30;;;;;;5048754;28;20060;-71
2022/04/28 11:23:22;;;;;;;;;;;19.80;56.20;;;;;;5050779;28;19947;-70
2022/04/28 11:25:48;;;;;;;;;;;19.80;56.20;;;;;;5049208;28;19912;-70
2022/04/28 11:28:13;;;;;;;;;;;19.80;56.10;;;;;;5050127;28;19968;-70
2022/04/28 11:30:40;;;;;;;;;;;19.80;56.20;;;;;;5050229;28;20450;-71
2022/04/28 11:33:06;;;;;;;;;;;19.90;56.20;;;;;;5048196;28;20016;-71
2022/04/28 11:35:34;;;;;;;;;;;19.80;56.20;;;;;;5050369;28;19942;-71
2022/04/28 11:38:00;;;;;;;;;;;19.80;56.10;;;;;;5049304;28;19959;-71
2022/04/28 11:40:25;;;;;;;;;;;19.90;56.20;;;;;;5049147;28;19913;-70
2022/04/28 11:42:57;;;;;;;;;;;19.90;56.20;;;;;;5048943;28;19932;-71
2022/04/28 11:45:23;;;;;;;;;;;19.80;56.20;;;;;;5049615;28;19982;-71
2022/04/28 11:47:49;;;;;;;;;;;19.80;56.20;;;;;;5048770;28;19908;-71
2022/04/28 11:50:20;;;;;;;;;;;19.90;56.20;;;;;;5048469;28;20432;-70
2022/04/28 11:52:46;;;;;;;;;;;19.80;56.20;;;;;;5048608;28;19917;-71
2022/04/28 11:55:12;;;;;;;;;;;19.80;56.10;;;;;;5049000;28;20062;-71
2022/04/28 11:57:39;;;;;;;;;;;19.80;56.10;;;;;;5050086;28;19924;-70
2022/04/28 12:00:08;;;;;;;;;;;19.90;56.20;;;;;;5048961;28;20306;-70
2022/04/28 12:02:34;;;;;;;;;;;19.90;56.20;;;;;;5047914;28;20229;-70
2022/04/28 12:05:01;;;;;;;;;;;19.90;56.80;;;;;;5046798;28;20449;-70
2022/04/28 12:07:30;;;;;;;;;;;19.90;56.10;;;;;;5047047;28;19921;-71
2022/04/28 12:15:24;;;;;;;;;;;19.90;56.10;;;;;;5045417;28;19923;-70
2022/04/28 12:20:50;;;;;;;;;;;19.90;56.10;;;;;;5025154;28;20599;-70
2022/04/28 12:23:37;;;;;;;;;;;19.90;56.10;;;;;;5026595;28;19917;-71
2022/04/28 12:26:05;;;;;;;;;;;19.90;56.10;;;;;;5046527;28;19999;-70
2022/04/28 12:28:31;;;;;;;;;;;19.90;56.10;;;;;;5044180;28;20499;-70
2022/04/28 12:30:56;;;;;;;;;;;19.90;56.10;;;;;;5044196;28;20007;-70
2022/04/28 12:33:21;;;;;;;;;;;20.00;56.10;;;;;;5028518;28;19939;-70
2022/04/28 12:35:47;;;;;;;;;;;19.90;56.10;;;;;;5046431;28;20820;-71
2022/04/28 12:38:13;;;;;;;;;;;19.90;56.10;;;;;;5046195;28;19923;-71
2022/04/28 12:40:42;;;;;;;;;;;19.90;56.10;;;;;;5044363;28;19928;-70
2022/04/28 12:43:08;;;;;;;;;;;19.90;56.10;;;;;;5043970;28;19913;-71
2022/04/28 12:45:42;;;;;;;;;;;19.90;56.20;;;;;;5044362;28;19979;-71
2022/04/28 12:48:27;;;;;;;;;;;19.90;56.10;;;;;;5046294;28;19913;-71
2022/04/28 12:51:12;;;;;;;;;;;19.90;56.10;;;;;;5045922;28;19924;-71
2022/04/28 12:53:37;;;;;;;;;;;19.90;56.10;;;;;;5044271;28;20330;-71
2022/04/28 12:56:03;;;;;;;;;;;19.90;56.10;;;;;;5028042;28;19971;-71
2022/04/28 12:58:29;;;;;;;;;;;19.90;56.10;;;;;;5043392;28;19917;-71
2022/04/28 13:00:54;;;;;;;;;;;19.90;56.10;;;;;;5045791;28;19920;-70
2022/04/28 13:03:27;;;;;;;;;;;20.00;56.20;;;;;;5044498;28;19917;-70
2022/04/28 13:05:53;;;;;;;;;;;20.00;56.20;;;;;;5044132;28;19916;-70
2022/04/28 13:08:18;;;;;;;;;;;19.90;56.10;;;;;;5044374;28;19932;-70
2022/04/28 13:10:44;;;;;;;;;;;19.90;56.10;;;;;;5036881;28;19923;-70
2022/04/28 13:13:10;;;;;;;;;;;20.00;56.10;;;;;;5045493;28;20407;-70
2022/04/28 13:15:35;;;;;;;;;;;20.00;56.00;;;;;;5045448;28;19917;-70
2022/04/28 13:18:01;;;;;;;;;;;20.00;56.00;;;;;;5046200;28;19966;-70
2022/04/28 13:20:26;;;;;;;;;;;20.00;56.00;;;;;;5044922;28;19943;-69
2022/04/28 13:22:52;;;;;;;;;;;20.00;56.00;;;;;;5045713;28;19939;-70
2022/04/28 13:25:17;;;;;;;;;;;20.00;56.00;;;;;;5045406;28;20410;-70
2022/04/28 13:27:43;;;;;;;;;;;20.00;56.00;;;;;;5046272;28;19913;-70
2022/04/28 13:30:09;;;;;;;;;;;20.00;56.00;;;;;;5044038;28;19924;-70
2022/04/28 13:32:36;;;;;;;;;;;20.00;56.00;;;;;;5045507;28;19923;-70
2022/04/28 13:35:01;;;;;;;;;;;20.00;56.00;;;;;;5044019;28;19913;-70
2022/04/28 13:37:27;;;;;;;;;;;20.00;56.00;;;;;;5043953;28;19917;-71
2022/04/28 13:39:52;;;;;;;;;;;20.00;56.00;;;;;;5043134;28;19959;-70
2022/04/28 13:42:18;;;;;;;;;;;20.00;56.00;;;;;;5044074;28;19955;-70
2022/04/28 13:44:43;;;;;;;;;;;20.00;55.90;;;;;;5026732;28;19918;-70
2022/04/28 13:47:09;;;;;;;;;;;20.00;55.90;;;;;;5043977;28;19917;-70
2022/04/28 13:49:34;;;;;;;;;;;20.10;55.90;;;;;;5042957;28;19923;-70
2022/04/28 13:52:01;;;;;;;;;;;20.10;55.80;;;;;;5043307;28;19917;-70
2022/04/28 13:54:26;;;;;;;;;;;20.10;55.80;;;;;;5044553;28;19917;-70
2022/04/28 13:56:52;;;;;;;;;;;20.10;55.80;;;;;;5042669;28;19962;-70
2022/04/28 13:59:17;;;;;;;;;;;20.10;55.80;;;;;;5025853;28;19923;-71
2022/04/28 14:01:43;;;;;;;;;;;20.10;55.80;;;;;;5026408;28;20466;-70
2022/04/28 14:04:09;;;;;;;;;;;20.10;55.80;;;;;;5044672;28;19928;-69
2022/04/28 14:06:34;;;;;;;;;;;20.10;55.80;;;;;;5026312;28;19913;-70
2022/04/28 14:09:00;;;;;;;;;;;20.10;55.80;;;;;;5042272;28;20334;-70
2022/04/28 14:11:26;;;;;;;;;;;20.10;55.80;;;;;;5043170;28;19921;-70
2022/04/28 14:13:51;;;;;;;;;;;20.10;55.80;;;;;;5042419;28;20050;-70
2022/04/28 14:16:17;;;;;;;;;;;20.10;55.80;;;;;;5036141;28;19960;-71
2022/04/28 14:18:42;;;;;;;;;;;20.00;55.70;;;;;;5042829;28;19917;-71
2022/04/28 14:21:08;;;;;;;;;;;20.10;55.90;;;;;;5042614;28;20643;-70
2022/04/28 14:23:34;;;;;;;;;;;20.00;55.80;;;;;;5043386;28;20070;-70
2022/04/28 14:25:59;;;;;;;;;;;20.10;55.80;;;;;;5041995;28;19921;-70
2022/04/28 14:28:25;;;;;;;;;;;20.10;55.80;;;;;;5044075;28;19924;-70
2022/04/28 14:30:50;;;;;;;;;;;20.10;55.80;;;;;;5042627;28;19956;-70
2022/04/28 14:33:15;;;;;;;;;;;20.10;55.80;;;;;;5043215;28;19916;-70
2022/04/28 14:35:42;;;;;;;;;;;20.10;55.70;;;;;;5044858;28;19939;-70
2022/04/28 14:38:07;;;;;;;;;;;20.10;55.70;;;;;;5042642;28;20648;-70
2022/04/28 14:40:32;;;;;;;;;;;20.10;55.70;;;;;;5041527;28;19975;-70
2022/04/28 14:42:58;;;;;;;;;;;20.10;55.70;;;;;;5043998;28;19916;-70
2022/04/28 14:45:23;;;;;;;;;;;20.20;55.80;;;;;;5042623;28;19927;-70
2022/04/28 14:47:49;;;;;;;;;;;20.20;55.70;;;;;;5043300;28;19912;-70
2022/04/28 14:52:59;;;;;;;;;;;20.20;55.70;;;;;;5043039;28;19978;-70
2022/04/28 14:55:24;;;;;;;;;;;20.20;55.70;;;;;;5044195;28;19917;-70